Time;durP1;ratioP1;P1;durP2;ratioP2;P2;SDS_P1;SDS_P2;PMS_P1;PMS_P2;Temp;Humidity;BMP_temperature;BMP_pressure;BME280_temperature;BME280_humidity;BME280_pressure;Samples;Min_cycle;Max_cycle;Signal;HPM_P1;HPM_P2
2022/05/28 00:04:33;;;;;;;4.13;0.28;;;12.50;76.60;;;;;;10338075;28;20112;-56
2022/05/28 00:09:35;;;;;;;3.70;0.35;;;12.40;77.10;;;;;;10333067;28;20051;-56
2022/05/28 00:14:36;;;;;;;3.33;0.22;;;12.40;77.20;;;;;;10332913;28;20041;-58
2022/05/28 00:19:38;;;;;;;3.42;0.38;;;12.30;78.40;;;;;;10331427;28;20046;-57
2022/05/28 00:24:40;;;;;;;3.63;0.55;;;12.10;79.30;;;;;;10336578;28;20101;-57
2022/05/28 00:29:42;;;;;;;2.50;0.30;;;12.00;78.30;;;;;;10336172;28;20050;-56
2022/05/28 00:34:43;;;;;;;2.88;0.20;;;12.00;80.00;;;;;;10334500;28;20062;-56
2022/05/28 00:39:45;;;;;;;2.47;0.30;;;11.90;78.40;;;;;;10333610;28;20460;-56
2022/05/28 00:44:47;;;;;;;7.20;0.30;;;11.90;78.70;;;;;;10337122;28;20049;-56
2022/05/28 00:49:49;;;;;;;2.83;0.17;;;11.80;79.80;;;;;;10327656;28;20053;-56
2022/05/28 00:54:52;;;;;;;4.90;0.20;;;11.80;82.40;;;;;;10336269;28;20050;-56
2022/05/28 00:59:54;;;;;;;5.78;0.10;;;11.70;83.50;;;;;;10333331;28;20053;-56
2022/05/28 01:05:20;;;;;;;3.45;0.25;;;11.50;83.20;;;;;;10335006;28;20042;-57
2022/05/28 01:10:33;;;;;;;3.42;0.30;;;11.50;83.40;;;;;;10330087;28;20493;-56
2022/05/28 01:15:43;;;;;;;2.20;0.10;;;11.40;84.00;;;;;;10331052;28;20124;-57
2022/05/28 01:20:54;;;;;;;3.25;0.30;;;11.30;85.20;;;;;;10332562;28;20058;-57
2022/05/28 01:26:25;;;;;;;4.07;0.35;;;11.20;84.70;;;;;;10327237;28;20060;-57
2022/05/28 01:31:28;;;;;;;6.22;0.30;;;11.20;86.70;;;;;;10337333;28;20057;-57
2022/05/28 01:36:32;;;;;;;2.30;0.20;;;11.20;86.20;;;;;;10334312;28;20050;-56
2022/05/28 01:41:37;;;;;;;4.70;0.25;;;11.10;86.20;;;;;;10333627;28;20057;-56
2022/05/28 01:46:40;;;;;;;5.18;0.32;;;11.10;86.20;;;;;;10328248;28;20049;-56
2022/05/28 01:51:53;;;;;;;5.97;0.57;;;11.10;86.40;;;;;;10336582;28;20593;-58
2022/05/28 01:56:56;;;;;;;7.30;0.80;;;11.00;87.10;;;;;;10332583;28;20042;-57
2022/05/28 02:02:00;;;;;;;3.70;0.20;;;11.00;89.20;;;;;;10328774;28;20045;-57
2022/05/28 02:07:03;;;;;;;1.83;0.22;;;10.90;89.60;;;;;;10331290;28;20056;-57
2022/05/28 02:12:33;;;;;;;6.30;0.20;;;10.90;90.90;;;;;;10337132;28;20045;-57
2022/05/28 02:17:59;;;;;;;3.20;0.10;;;10.80;91.10;;;;;;10327091;28;20049;-57
2022/05/28 02:23:09;;;;;;;5.47;0.30;;;10.70;91.10;;;;;;10330954;28;20057;-57
2022/05/28 02:28:12;;;;;;;2.75;0.20;;;10.80;91.80;;;;;;10328854;28;20046;-59
2022/05/28 02:33:15;;;;;;;3.30;0.30;;;10.70;92.40;;;;;;10334535;28;20572;-57
2022/05/28 02:38:17;;;;;;;6.03;0.30;;;10.60;93.30;;;;;;10329821;28;20107;-57
2022/05/28 02:43:18;;;;;;;2.80;0.20;;;10.60;94.00;;;;;;10322564;28;20045;-57
2022/05/28 02:48:20;;;;;;;3.63;0.80;;;10.50;94.50;;;;;;10328486;28;20058;-57
2022/05/28 02:53:22;;;;;;;5.13;0.50;;;10.60;94.90;;;;;;10330453;28;20046;-57
2022/05/28 02:58:24;;;;;;;4.93;0.20;;;10.60;95.10;;;;;;10328103;28;20234;-57
2022/05/28 03:03:26;;;;;;;4.05;0.15;;;10.60;95.60;;;;;;10335356;28;20121;-57
2022/05/28 03:08:28;;;;;;;4.15;0.35;;;10.50;95.80;;;;;;10327881;28;20125;-58
2022/05/28 03:13:29;;;;;;;3.60;0.20;;;10.60;95.30;;;;;;10330446;28;20053;-57
2022/05/28 03:18:31;;;;;;;1.85;0.20;;;10.50;96.10;;;;;;10331539;28;20627;-57
2022/05/28 03:23:33;;;;;;;3.80;0.22;;;10.50;96.40;;;;;;10330652;28;20131;-60
2022/05/28 03:28:35;;;;;;;2.20;0.20;;;10.50;96.90;;;;;;10321817;28;20058;-60
2022/05/28 03:33:37;;;;;;;0.75;0.20;;;10.50;96.70;;;;;;10329036;28;20054;-60
2022/05/28 03:38:38;;;;;;;2.40;0.10;;;10.50;95.90;;;;;;10330355;28;20053;-61
2022/05/28 03:43:40;;;;;;;4.32;0.28;;;10.50;96.70;;;;;;10330168;28;20057;-60
2022/05/28 03:48:42;;;;;;;3.63;0.20;;;10.60;96.50;;;;;;10331760;28;20038;-60
2022/05/28 03:53:44;;;;;;;5.82;0.20;;;10.60;96.60;;;;;;10328198;28;20104;-60
2022/05/28 03:58:47;;;;;;;4.18;0.20;;;10.60;97.20;;;;;;10327612;28;20097;-60
2022/05/28 04:03:49;;;;;;;3.47;0.60;;;10.60;96.70;;;;;;10331422;28;20062;-59
2022/05/28 04:08:50;;;;;;;13.18;1.15;;;10.60;96.60;;;;;;10328770;28;20405;-60
2022/05/28 04:13:52;;;;;;;0.43;0.10;;;10.70;97.50;;;;;;10328035;28;20069;-60
2022/05/28 04:18:54;;;;;;;4.88;0.20;;;10.80;97.20;;;;;;10330539;28;20050;-60
2022/05/28 04:23:56;;;;;;;4.88;0.52;;;10.80;97.50;;;;;;10329475;28;20056;-60
2022/05/28 04:28:57;;;;;;;0.95;0.10;;;10.90;96.60;;;;;;10327702;28;20042;-60
2022/05/28 04:33:59;;;;;;;4.47;0.20;;;10.90;96.90;;;;;;10326566;28;20046;-61
2022/05/28 04:39:01;;;;;;;3.53;0.20;;;10.90;97.20;;;;;;10332198;28;20042;-60
2022/05/28 04:44:03;;;;;;;6.95;0.30;;;11.00;97.30;;;;;;10328368;28;20108;-60
2022/05/28 04:49:05;;;;;;;3.20;0.20;;;11.00;97.20;;;;;;10329741;28;20061;-60
2022/05/28 04:54:08;;;;;;;5.80;0.63;;;11.00;97.70;;;;;;10334196;28;20058;-60
2022/05/28 04:59:09;;;;;;;3.08;0.28;;;11.20;96.90;;;;;;10332933;28;20050;-60
2022/05/28 05:04:12;;;;;;;5.60;0.40;;;11.40;96.60;;;;;;10334248;28;20061;-60
2022/05/28 05:09:13;;;;;;;4.22;0.40;;;11.50;96.60;;;;;;10335419;28;20133;-60
2022/05/28 05:14:15;;;;;;;3.38;0.20;;;11.60;96.20;;;;;;10336331;28;20046;-60
2022/05/28 05:19:17;;;;;;;4.80;0.35;;;11.70;95.70;;;;;;10336851;28;20489;-60
2022/05/28 05:24:19;;;;;;;4.95;0.50;;;11.70;95.50;;;;;;10332185;28;20075;-61
2022/05/28 05:29:20;;;;;;;2.58;0.20;;;11.80;95.70;;;;;;10332017;28;20046;-61
2022/05/28 05:34:22;;;;;;;3.88;0.30;;;11.80;95.50;;;;;;10332797;28;20544;-61
2022/05/28 05:39:24;;;;;;;5.80;0.30;;;11.80;95.50;;;;;;10334222;28;20058;-60
2022/05/28 05:44:26;;;;;;;4.68;0.50;;;11.90;95.40;;;;;;10332207;28;20352;-60
2022/05/28 05:49:27;;;;;;;1.98;0.45;;;12.00;95.40;;;;;;10338414;28;20107;-59
2022/05/28 05:54:29;;;;;;;7.18;0.40;;;12.10;95.00;;;;;;10332306;28;20116;-59
2022/05/28 05:59:31;;;;;;;4.15;0.38;;;12.30;95.70;;;;;;10335754;28;20071;-60
2022/05/28 06:04:32;;;;;;;3.33;0.60;;;12.40;94.80;;;;;;10330718;28;20123;-60
2022/05/28 06:09:35;;;;;;;2.65;0.45;;;12.60;95.20;;;;;;10333448;28;20495;-60
2022/05/28 06:14:36;;;;;;;2.30;0.20;;;12.70;94.20;;;;;;10328702;28;20046;-60
2022/05/28 06:19:38;;;;;;;5.57;0.60;;;13.00;93.90;;;;;;10327376;28;20058;-60
2022/05/28 06:24:40;;;;;;;7.35;0.50;;;13.10;92.50;;;;;;10328770;28;20046;-59
2022/05/28 06:29:48;;;;;;;2.67;0.30;;;13.40;92.40;;;;;;10332641;28;20050;-60
2022/05/28 06:34:49;;;;;;;3.42;0.30;;;13.50;91.50;;;;;;10329422;28;20058;-60
2022/05/28 06:39:51;;;;;;;3.53;0.35;;;13.60;90.50;;;;;;10326085;28;20096;-60
2022/05/28 06:44:55;;;;;;;2.80;0.47;;;13.60;90.50;;;;;;10331639;28;20046;-60
2022/05/28 06:55:17;;;;;;;2.47;0.20;;;13.80;91.10;;;;;;10334153;28;20540;-60
2022/05/28 07:00:19;;;;;;;2.80;0.30;;;13.90;87.40;;;;;;10329532;28;20050;-60
2022/05/28 07:05:21;;;;;;;2.53;0.60;;;14.00;87.20;;;;;;10330595;28;20112;-60
2022/05/28 07:10:23;;;;;;;3.60;0.20;;;13.90;85.00;;;;;;10325184;28;20503;-61
2022/05/28 07:15:25;;;;;;;4.05;0.32;;;13.70;83.10;;;;;;10331083;28;20158;-61
2022/05/28 07:20:26;;;;;;;2.20;0.32;;;14.00;82.10;;;;;;10334008;28;20045;-61
2022/05/28 07:25:29;;;;;;;4.22;0.30;;;14.00;80.90;;;;;;10328868;28;20065;-61
2022/05/28 07:30:30;;;;;;;2.42;0.22;;;14.40;83.40;;;;;;10326804;28;20066;-61
2022/05/28 07:35:32;;;;;;;1.15;0.10;;;14.30;79.70;;;;;;10325906;28;20053;-61
2022/05/28 07:40:34;;;;;;;3.42;0.20;;;14.20;79.60;;;;;;10329605;28;20118;-59
2022/05/28 07:45:38;;;;;;;3.53;0.22;;;14.30;80.60;;;;;;10340030;28;20054;-59
2022/05/28 07:50:40;;;;;;;2.15;0.17;;;14.40;79.10;;;;;;10328799;28;20397;-59
2022/05/28 07:55:42;;;;;;;1.23;0.10;;;14.40;79.80;;;;;;10328529;28;20046;-59
2022/05/28 08:00:47;;;;;;;4.63;0.43;;;14.50;79.00;;;;;;10329528;28;20058;-59
2022/05/28 08:05:52;;;;;;;2.95;0.22;;;14.60;79.10;;;;;;10322936;28;20054;-59
2022/05/28 08:10:54;;;;;;;1.98;0.30;;;14.70;76.80;;;;;;10323366;28;20225;-59
2022/05/28 08:15:56;;;;;;;10.63;2.25;;;14.80;78.60;;;;;;10330113;28;20058;-59
2022/05/28 08:26:19;;;;;;;0.75;0.40;;;15.20;78.10;;;;;;10339475;28;20044;-59
2022/05/28 08:31:22;;;;;;;1.70;0.50;;;15.20;75.90;;;;;;10337771;28;20046;-59
2022/05/28 08:36:24;;;;;;;2.30;0.60;;;15.40;75.90;;;;;;10340429;28;20046;-59
2022/05/28 08:41:36;;;;;;;3.13;0.75;;;15.50;74.50;;;;;;10331044;28;20057;-59
2022/05/28 08:46:38;;;;;;;1.23;0.40;;;15.50;72.50;;;;;;10329324;28;20050;-60
2022/05/28 08:51:54;;;;;;;1.10;0.50;;;15.70;71.70;;;;;;10342482;28;20066;-59
2022/05/28 08:57:02;;;;;;;4.07;0.50;;;15.80;71.30;;;;;;10333101;28;20058;-60
2022/05/28 09:02:17;;;;;;;1.50;0.30;;;16.20;71.30;;;;;;10334740;28;20134;-65
2022/05/28 09:07:19;;;;;;;4.22;0.40;;;15.90;71.90;;;;;;10334246;28;20590;-61
2022/05/28 09:12:28;;;;;;;3.03;0.40;;;16.10;68.60;;;;;;10333574;28;20046;-61
2022/05/28 09:17:35;;;;;;;0.52;0.30;;;16.30;68.50;;;;;;10334612;28;20046;-60
2022/05/28 09:22:37;;;;;;;3.05;0.50;;;16.40;66.50;;;;;;10331740;28;20054;-60
2022/05/28 09:27:53;;;;;;;0.70;0.30;;;16.80;65.80;;;;;;10332638;28;20050;-59
2022/05/28 09:33:21;;;;;;;2.50;0.40;;;16.70;65.20;;;;;;10335499;28;20104;-59
2022/05/28 09:38:30;;;;;;;1.38;0.30;;;16.60;67.40;;;;;;10329400;28;20064;-59
2022/05/28 09:43:34;;;;;;;2.88;0.40;;;16.40;66.70;;;;;;10333777;28;20477;-60
2022/05/28 09:48:36;;;;;;;4.47;0.40;;;16.20;67.60;;;;;;10335308;28;20046;-68
2022/05/28 09:59:00;;;;;;;1.05;0.20;;;16.40;60.40;;;;;;10335880;28;20539;-66
2022/05/28 10:09:46;;;;;;;3.05;0.35;;;16.70;59.80;;;;;;10328751;28;20518;-66
2022/05/28 10:14:58;;;;;;;1.40;0.20;;;17.00;61.20;;;;;;10334793;28;20092;-62
2022/05/28 10:20:04;;;;;;;0.90;0.20;;;17.00;56.90;;;;;;10330887;28;20050;-64
2022/05/28 10:25:30;;;;;;;0.40;0.30;;;17.10;55.50;;;;;;10331877;28;20046;-63
2022/05/28 10:30:41;;;;;;;1.70;0.68;;;17.10;57.10;;;;;;10329570;28;20488;-65
2022/05/28 10:35:43;;;;;;;0.57;0.20;;;17.40;58.00;;;;;;10326670;28;20061;-60
2022/05/28 10:40:48;;;;;;;0.45;0.20;;;17.70;51.70;;;;;;10336046;28;20669;-60
2022/05/28 10:46:08;;;;;;;1.92;0.28;;;17.90;52.70;;;;;;10321535;28;20050;-63
2022/05/28 10:51:15;;;;;;;2.35;0.45;;;18.10;53.40;;;;;;10329210;28;20046;-63
2022/05/28 10:56:24;;;;;;;;;;;18.30;51.80;;;;;;10331581;28;20050;-63
2022/05/28 11:01:57;;;;;;;3.75;0.30;;;18.10;53.00;;;;;;10326099;28;19940;-63
2022/05/28 11:07:38;;;;;;;2.83;0.30;;;18.20;51.70;;;;;;10320735;28;20034;-64
2022/05/28 11:12:53;;;;;;;1.05;0.20;;;18.00;50.30;;;;;;10335140;28;20068;-67
2022/05/28 11:18:21;;;;;;;0.93;0.20;;;18.30;49.20;;;;;;10327924;28;20058;-66
2022/05/28 11:23:38;;;;;;;0.93;0.20;;;18.20;47.70;;;;;;10326617;28;20046;-65
2022/05/28 11:29:13;;;;;;;2.20;0.10;;;18.80;46.50;;;;;;10333369;28;20065;-63
2022/05/28 11:34:26;;;;;;;2.30;0.20;;;18.80;48.30;;;;;;10301580;28;20046;-62
2022/05/28 11:39:46;;;;;;;1.48;0.20;;;18.60;47.10;;;;;;10329915;28;20107;-63
2022/05/28 11:44:54;;;;;;;3.53;0.20;;;19.10;47.40;;;;;;10329612;28;20448;-62
2022/05/28 11:55:45;;;;;;;0.55;0.38;;;19.70;46.20;;;;;;10329199;28;20046;-63
2022/05/28 12:00:57;;;;;;;1.02;0.40;;;19.40;46.40;;;;;;10336102;28;20058;-63
2022/05/28 12:06:16;;;;;;;4.60;0.30;;;19.40;44.10;;;;;;10339294;28;20049;-63
2022/05/28 12:11:38;;;;;;;1.73;0.30;;;20.10;43.80;;;;;;10339405;28;20042;-63
2022/05/28 12:16:43;;;;;;;2.65;0.40;;;19.40;45.60;;;;;;10338204;28;20050;-63
2022/05/28 12:21:45;;;;;;;1.60;0.22;;;19.20;46.40;;;;;;10341449;28;20052;-62
2022/05/28 12:32:17;;;;;;;4.40;0.40;;;19.20;44.90;;;;;;10333986;28;20396;-61
2022/05/28 12:37:27;;;;;;;2.88;0.20;;;19.90;44.40;;;;;;10338617;28;20057;-61
2022/05/28 12:42:32;;;;;;;0.22;0.20;;;19.80;43.60;;;;;;10338268;28;20050;-62
2022/05/28 12:47:35;;;;;;;1.40;0.27;;;19.30;47.20;;;;;;10338292;28;20062;-62
2022/05/28 12:53:06;;;;;;;0.32;0.25;;;18.80;48.10;;;;;;10329411;28;20625;-61
2022/05/28 12:58:26;;;;;;;1.13;0.30;;;18.60;47.70;;;;;;10326913;28;20046;-62
2022/05/28 13:03:42;;;;;;;3.22;0.22;;;18.60;47.70;;;;;;10339641;28;20111;-62
2022/05/28 13:08:58;;;;;;;1.27;0.30;;;19.50;46.10;;;;;;10332902;28;20083;-62
2022/05/28 13:14:05;;;;;;;1.17;0.20;;;19.10;45.80;;;;;;10335242;28;20455;-63
2022/05/28 13:19:34;;;;;;;0.68;0.30;;;19.10;46.00;;;;;;10331404;28;20104;-62
2022/05/28 13:24:56;;;;;;;1.08;0.20;;;18.50;47.60;;;;;;10329303;28;20053;-63
2022/05/28 13:30:19;;;;;;;0.65;0.52;;;18.10;47.40;;;;;;10333545;28;20066;-62
2022/05/28 13:35:21;;;;;;;0.30;0.20;;;18.20;48.50;;;;;;10331729;28;20065;-62
2022/05/28 13:40:32;;;;;;;1.77;0.30;;;18.50;47.10;;;;;;10334627;28;20117;-62
2022/05/28 13:45:36;;;;;;;1.02;0.20;;;18.40;47.80;;;;;;10334289;28;20106;-62
2022/05/28 13:50:40;;;;;;;2.05;0.40;;;18.60;48.80;;;;;;10325966;28;20050;-62
2022/05/28 13:55:44;;;;;;;2.22;0.20;;;18.80;47.80;;;;;;10334316;28;20515;-62
2022/05/28 14:00:59;;;;;;;2.85;0.20;;;19.00;46.70;;;;;;10331322;28;20064;-62
2022/05/28 14:06:04;;;;;;;4.22;0.15;;;20.00;44.40;;;;;;10328199;28;20176;-63
2022/05/28 14:11:13;;;;;;;1.63;0.25;;;19.80;43.00;;;;;;10330450;28;20100;-63
2022/05/28 14:16:40;;;;;;;1.58;0.10;;;20.20;45.10;;;;;;10330437;28;20100;-63
2022/05/28 14:21:50;;;;;;;;;;;20.00;40.60;;;;;;10326977;28;20054;-63
2022/05/28 14:26:55;;;;;;;0.32;0.22;;;19.60;43.90;;;;;;10333139;28;19952;-63
2022/05/28 14:31:58;;;;;;;4.15;0.13;;;19.60;44.90;;;;;;10331763;28;20120;-63
2022/05/28 14:36:59;;;;;;;2.13;0.20;;;19.60;44.10;;;;;;10329244;28;20104;-63
2022/05/28 14:42:13;;;;;;;1.23;0.20;;;19.70;41.40;;;;;;10333834;28;20038;-67
2022/05/28 14:47:30;;;;;;;2.08;0.10;;;19.50;42.70;;;;;;10334688;28;20057;-67
2022/05/28 14:52:35;;;;;;;1.38;0.10;;;20.10;42.10;;;;;;10330963;28;20100;-61
2022/05/28 14:57:43;;;;;;;0.70;0.10;;;20.90;41.90;;;;;;10331649;28;20057;-61
2022/05/28 15:02:45;;;;;;;1.95;0.20;;;21.10;40.90;;;;;;10332194;28;20049;-61
2022/05/28 15:08:03;;;;;;;0.70;0.20;;;21.60;40.60;;;;;;10326166;28;20501;-61
2022/05/28 15:13:13;;;;;;;0.65;0.10;;;21.50;40.20;;;;;;10331570;28;20057;-61
2022/05/28 15:18:16;;;;;;;0.45;0.10;;;20.60;40.90;;;;;;10332997;28;20058;-61
2022/05/28 15:23:18;;;;;;;1.30;0.00;;;19.70;43.00;;;;;;10333293;28;20046;-61
2022/05/28 15:28:20;;;;;;;0.93;0.10;;;19.10;43.90;;;;;;10331359;28;20115;-62
2022/05/28 15:33:23;;;;;;;1.30;0.10;;;18.90;45.20;;;;;;10328547;28;20065;-63
2022/05/28 15:38:25;;;;;;;0.40;0.20;;;19.50;45.00;;;;;;10330454;28;20104;-63
2022/05/28 15:43:27;;;;;;;1.13;0.10;;;19.40;43.40;;;;;;10324984;28;20591;-63
2022/05/28 15:48:30;;;;;;;0.60;0.10;;;19.30;43.90;;;;;;10329212;28;20042;-63
2022/05/28 15:53:32;;;;;;;0.85;0.43;;;19.10;45.20;;;;;;10329157;28;20050;-63
2022/05/28 15:58:38;;;;;;;1.02;0.10;;;19.00;45.90;;;;;;10329916;28;20492;-63
2022/05/28 16:03:39;;;;;;;0.33;0.10;;;18.80;45.90;;;;;;10326914;28;20054;-64
2022/05/28 16:08:42;;;;;;;1.90;1.02;;;19.60;43.50;;;;;;10329372;28;20280;-63
2022/05/28 16:13:44;;;;;;;1.77;0.10;;;19.30;43.30;;;;;;10321431;28;20159;-63
2022/05/28 16:18:48;;;;;;;0.82;0.30;;;19.00;44.60;;;;;;10331151;28;20049;-67
2022/05/28 16:23:51;;;;;;;1.75;0.10;;;18.20;46.80;;;;;;10321084;28;20058;-67
2022/05/28 16:28:59;;;;;;;1.08;0.10;;;18.20;48.70;;;;;;10332494;28;20045;-70
2022/05/28 16:34:02;;;;;;;1.08;0.28;;;18.40;48.00;;;;;;10331403;28;20050;-68
2022/05/28 16:39:06;;;;;;;0.70;0.17;;;18.70;46.80;;;;;;10325887;28;20053;-67
2022/05/28 16:44:11;;;;;;;1.17;0.20;;;19.10;45.70;;;;;;10330024;28;20128;-67
2022/05/28 16:49:13;;;;;;;0.52;0.10;;;19.70;44.60;;;;;;10339841;28;20054;-66
2022/05/28 16:54:14;;;;;;;0.52;0.25;;;20.30;43.10;;;;;;10333870;28;20047;-66
2022/05/28 16:59:17;;;;;;;1.92;0.20;;;20.10;43.70;;;;;;10329090;28;20053;-65
2022/05/28 17:04:19;;;;;;;1.45;0.20;;;20.40;44.50;;;;;;10336967;28;20060;-66
2022/05/28 17:09:22;;;;;;;3.25;0.20;;;20.00;45.40;;;;;;10338435;28;20057;-65
2022/05/28 17:14:25;;;;;;;1.05;0.20;;;19.10;46.60;;;;;;10334190;28;20136;-66
2022/05/28 17:19:28;;;;;;;3.60;0.22;;;18.70;47.50;;;;;;10326307;28;20052;-65
2022/05/28 17:24:31;;;;;;;0.75;0.17;;;18.40;48.50;;;;;;10319737;28;20132;-66
2022/05/28 17:29:34;;;;;;;2.85;0.20;;;18.90;47.60;;;;;;10337867;28;20042;-64
2022/05/28 17:34:39;;;;;;;4.95;0.20;;;19.50;47.10;;;;;;10333738;28;20057;-65
2022/05/28 17:39:41;;;;;;;1.58;0.35;;;19.70;46.50;;;;;;10332642;28;20555;-66
2022/05/28 17:44:42;;;;;;;1.15;0.20;;;19.60;46.40;;;;;;10304670;28;20061;-64
2022/05/28 17:49:44;;;;;;;3.05;0.20;;;19.40;46.90;;;;;;10332207;28;20416;-66
2022/05/28 17:54:46;;;;;;;2.40;0.20;;;20.10;45.90;;;;;;10329474;28;20492;-62
2022/05/28 17:59:48;;;;;;;3.63;0.20;;;20.30;46.00;;;;;;10336568;28;20113;-61
2022/05/28 18:04:52;;;;;;;0.95;0.13;;;20.00;46.20;;;;;;10336968;28;20090;-63
2022/05/28 18:09:54;;;;;;;2.00;0.20;;;19.40;47.40;;;;;;10331852;28;20638;-62
2022/05/28 18:14:56;;;;;;;2.80;0.30;;;18.90;49.10;;;;;;10332817;28;20054;-60
2022/05/28 18:19:59;;;;;;;1.85;0.30;;;18.70;49.40;;;;;;10331578;28;20049;-60
2022/05/28 18:25:03;;;;;;;2.58;0.30;;;18.20;48.70;;;;;;10335013;28;20053;-61
2022/05/28 18:30:07;;;;;;;2.67;0.30;;;17.90;49.60;;;;;;10332801;28;20081;-60
2022/05/28 18:35:10;;;;;;;3.00;0.60;;;17.60;50.60;;;;;;10331718;28;20477;-61
2022/05/28 18:40:17;;;;;;;2.30;0.47;;;17.30;51.70;;;;;;10328474;28;20440;-61
2022/05/28 18:45:19;;;;;;;3.53;0.82;;;17.00;52.50;;;;;;10333946;28;20049;-61
2022/05/28 18:50:23;;;;;;;5.15;3.50;;;16.70;53.30;;;;;;10329677;28;20053;-61
2022/05/28 18:55:25;;;;;;;3.60;0.40;;;16.50;53.90;;;;;;10330903;28;20050;-61
2022/05/28 19:00:27;;;;;;;1.35;0.40;;;16.40;54.60;;;;;;10328846;28;20111;-61
2022/05/28 19:05:29;;;;;;;6.00;0.50;;;16.20;54.90;;;;;;10329648;28;20623;-61
2022/05/28 19:10:30;;;;;;;2.35;0.68;;;16.00;55.60;;;;;;10329473;28;20119;-60
2022/05/28 19:15:39;;;;;;;3.65;0.77;;;15.90;56.80;;;;;;10331725;28;20407;-62
2022/05/28 19:20:44;;;;;;;1.75;0.70;;;15.80;57.30;;;;;;10331158;28;20045;-61
2022/05/28 19:31:08;;;;;;;4.20;2.13;;;15.30;58.90;;;;;;10325720;28;20066;-60
2022/05/28 19:36:10;;;;;;;1.77;0.60;;;15.00;60.40;;;;;;10329272;28;20136;-61
2022/05/28 19:41:22;;;;;;;4.43;1.08;;;14.90;61.00;;;;;;10330438;28;20054;-61
2022/05/28 19:46:28;;;;;;;3.55;0.70;;;14.70;62.20;;;;;;10329149;28;20053;-60
2022/05/28 19:51:31;;;;;;;2.83;1.00;;;14.40;62.10;;;;;;10323758;28;20058;-61
2022/05/28 19:56:32;;;;;;;7.18;0.65;;;14.40;62.40;;;;;;10335123;28;20156;-61
2022/05/28 20:01:35;;;;;;;0.98;0.30;;;14.10;63.20;;;;;;10333636;28;20120;-62
2022/05/28 20:06:36;;;;;;;3.60;0.40;;;14.00;64.10;;;;;;10327423;28;20120;-56
2022/05/28 20:11:39;;;;;;;2.88;0.30;;;13.90;65.00;;;;;;10329358;28;20046;-58
2022/05/28 20:16:41;;;;;;;1.02;0.30;;;13.70;65.40;;;;;;10334252;28;20077;-56
2022/05/28 20:21:43;;;;;;;2.55;0.47;;;13.60;65.60;;;;;;10337915;28;20088;-57
2022/05/28 20:26:44;;;;;;;4.47;0.30;;;13.50;65.90;;;;;;10338189;28;20046;-57
2022/05/28 20:31:46;;;;;;;4.60;1.45;;;13.50;66.70;;;;;;10334409;28;20042;-58
2022/05/28 20:36:48;;;;;;;3.83;1.55;;;13.40;71.10;;;;;;10337166;28;20066;-58
2022/05/28 20:41:50;;;;;;;2.85;0.90;;;13.30;71.10;;;;;;10335890;28;20050;-57
2022/05/28 20:46:52;;;;;;;5.22;1.30;;;13.10;70.80;;;;;;10337879;28;20050;-58
2022/05/28 20:51:55;;;;;;;5.97;1.63;;;13.00;71.70;;;;;;10337219;28;20053;-57
2022/05/28 20:56:57;;;;;;;5.28;1.50;;;12.90;72.80;;;;;;10337826;28;20050;-57
2022/05/28 21:01:59;;;;;;;3.10;0.60;;;12.80;72.70;;;;;;10335435;28;20512;-57
2022/05/28 21:07:03;;;;;;;2.05;0.68;;;12.40;72.70;;;;;;10335199;28;20042;-56
2022/05/28 21:12:05;;;;;;;1.85;0.63;;;12.30;73.50;;;;;;10337320;28;20731;-57
2022/05/28 21:17:06;;;;;;;4.28;0.82;;;12.20;73.80;;;;;;10336666;28;20882;-59
2022/05/28 21:22:08;;;;;;;2.85;0.35;;;12.20;74.20;;;;;;10335922;28;20046;-57
2022/05/28 21:32:36;;;;;;;2.08;0.50;;;12.10;75.70;;;;;;10334201;28;20062;-57
2022/05/28 21:37:38;;;;;;;2.88;0.50;;;12.10;75.60;;;;;;10332863;28;20412;-57
2022/05/28 21:42:40;;;;;;;2.67;0.73;;;12.00;76.50;;;;;;10339584;28;20049;-56
2022/05/28 21:47:45;;;;;;;3.08;0.70;;;11.80;77.30;;;;;;10333527;28;20107;-56
2022/05/28 21:52:48;;;;;;;1.95;0.60;;;11.70;78.60;;;;;;10332043;28;20050;-57
2022/05/28 21:57:50;;;;;;;3.90;0.50;;;11.60;78.90;;;;;;10333351;28;20039;-56
2022/05/28 22:02:55;;;;;;;1.70;0.40;;;11.60;78.50;;;;;;10336453;28;20046;-59
2022/05/28 22:07:57;;;;;;;3.45;0.80;;;11.60;78.90;;;;;;10330987;28;20492;-57
2022/05/28 22:12:59;;;;;;;6.15;0.50;;;11.60;79.70;;;;;;10329311;28;20045;-56
2022/05/28 22:18:04;;;;;;;1.08;0.38;;;11.50;80.30;;;;;;10331442;28;20034;-57
2022/05/28 22:23:06;;;;;;;4.32;1.02;;;11.40;81.30;;;;;;10333934;28;20065;-58
2022/05/28 22:28:07;;;;;;;7.72;0.70;;;11.30;82.40;;;;;;10328434;28;20056;-57
2022/05/28 22:33:10;;;;;;;4.30;0.47;;;11.20;83.30;;;;;;10325801;28;20061;-57
2022/05/28 22:38:13;;;;;;;5.45;0.60;;;11.10;84.10;;;;;;10333088;28;20042;-57
2022/05/28 22:43:15;;;;;;;4.00;0.52;;;11.20;85.50;;;;;;10328029;28;20046;-56
2022/05/28 22:48:19;;;;;;;1.50;0.50;;;11.00;86.10;;;;;;10330221;28;20044;-57
2022/05/28 22:53:36;;;;;;;2.58;0.47;;;11.10;87.40;;;;;;10326781;28;20556;-56
2022/05/28 22:58:41;;;;;;;2.13;0.50;;;11.00;89.10;;;;;;10326930;28;20111;-57
2022/05/28 23:03:44;;;;;;;4.63;0.70;;;10.90;89.50;;;;;;10329820;28;20046;-56
2022/05/28 23:08:46;;;;;;;5.82;1.48;;;10.80;90.30;;;;;;10330924;28;20052;-55
2022/05/28 23:13:48;;;;;;;2.65;0.70;;;10.70;90.70;;;;;;10331915;28;20497;-57
2022/05/28 23:18:50;;;;;;;2.35;0.47;;;10.60;91.10;;;;;;10325453;28;20108;-57
2022/05/28 23:29:12;;;;;;;5.88;0.50;;;10.60;92.20;;;;;;10328928;28;20049;-58
2022/05/28 23:34:41;;;;;;;1.52;0.50;;;10.60;92.70;;;;;;10329751;28;20049;-56
2022/05/28 23:39:43;;;;;;;1.35;1.02;;;10.60;93.00;;;;;;10325393;28;20397;-56
2022/05/28 23:44:44;;;;;;;7.72;0.57;;;10.60;92.40;;;;;;10329112;28;20078;-56
2022/05/28 23:49:47;;;;;;;5.22;0.70;;;10.70;92.40;;;;;;10333053;28;20054;-56
2022/05/28 23:54:50;;;;;;;3.08;0.60;;;10.70;92.20;;;;;;10327887;28;20077;-56
2022/05/28 23:59:51;;;;;;;3.17;0.40;;;10.60;92.50;;;;;;10327934;28;20104;-57
